Impacts TAF Board INFO
FOR SITUATIONAL AWARENESS. NOT TO BE USED FOR FLIGHT PLANNING PURPOSES.
IDs:

KDEN - Denver Intl, CO, US

Issued at 0308 UTC 22 Jun 2018
Updated at 0313 UTC 22 Jun 2018
Potential Impact None Slight Moderate High
Time<<23/04Z 23/05Z 23/06Z 23/07Z 23/08Z 23/09Z 23/10Z 23/11Z 23/12Z 23/13Z 23/14Z 23/15Z 23/16Z
Type PRVL PRVL
VIS >6 >6
CIG 220 220
Cover BKN BKN
FltCat VFR VFR
WX -- --
WDir 290 290
WSpd 12 12
WGst -- --

Raw TAF
KDEN 220308Z 2203/2306 10009KT P6SM FEW120 SCT220
  FM220500 14008KT P6SM FEW220
  FM221000 19012KT P6SM FEW220
  FM221500 32008KT P6SM SCT140
  FM221700 02008KT P6SM FEW090 BKN180
  PROB30 2220/2223 VRB30G40KT -TSRA BKN080CB
  FM230000 29012KT P6SM SCT070 BKN220


METAR Board
Radar Display
Forecast Discussion

FOR SITUATIONAL AWARENESS. NOT TO BE USED FOR FLIGHT PLANNING PURPOSES.